Time;durP1;ratioP1;P1;durP2;ratioP2;P2;SDS_P1;SDS_P2;PMS_P1;PMS_P2;Temp;Humidity;BMP_temperature;BMP_pressure;BME280_temperature;BME280_humidity;BME280_pressure;Samples;Min_cycle;Max_cycle;Signal;HPM_P1;HPM_P2
2021/01/23 00:01:18;;;;;;;25.60;12.70;;;1.40;99.90;;;;;;4973475;28;20185;-66
2021/01/23 00:03:44;;;;;;;21.70;12.33;;;1.50;99.90;;;;;;4973111;28;20182;-63
2021/01/23 00:06:09;;;;;;;24.60;13.47;;;1.50;99.90;;;;;;4972708;28;20332;-66
2021/01/23 00:08:35;;;;;;;25.73;13.60;;;1.50;99.90;;;;;;4972851;28;20186;-66
2021/01/23 00:11:01;;;;;;;24.57;13.13;;;1.50;99.90;;;;;;4973165;28;20663;-64
2021/01/23 00:13:26;;;;;;;21.03;13.33;;;1.40;99.90;;;;;;4973049;28;20271;-67
2021/01/23 00:15:52;;;;;;;18.00;11.97;;;1.40;99.90;;;;;;4973035;28;20169;-63
2021/01/23 00:18:17;;;;;;;16.73;11.43;;;1.40;99.90;;;;;;4972661;28;20184;-64
2021/01/23 00:20:43;;;;;;;19.07;12.17;;;1.30;99.90;;;;;;4973031;28;20196;-63
2021/01/23 00:23:09;;;;;;;20.37;12.43;;;1.30;99.90;;;;;;4972777;28;20201;-66
2021/01/23 00:25:35;;;;;;;19.50;12.10;;;1.30;99.90;;;;;;4973042;28;20178;-64
2021/01/23 00:28:00;;;;;;;19.27;11.97;;;1.20;99.90;;;;;;4972623;28;20221;-64
2021/01/23 00:30:26;;;;;;;27.20;12.57;;;1.20;99.90;;;;;;4972591;28;20245;-64
2021/01/23 00:32:51;;;;;;;19.33;11.73;;;1.20;99.90;;;;;;4972702;28;20213;-63
2021/01/23 00:35:17;;;;;;;17.13;12.70;;;1.10;99.90;;;;;;4972957;28;20177;-63
2021/01/23 00:37:43;;;;;;;20.33;12.87;;;1.00;99.90;;;;;;4972356;28;20185;-63
2021/01/23 00:40:09;;;;;;;26.67;13.47;;;1.10;99.90;;;;;;4972893;28;20180;-64
2021/01/23 00:42:35;;;;;;;23.93;13.50;;;1.10;99.90;;;;;;4971746;28;20628;-63
2021/01/23 00:45:01;;;;;;;18.60;10.93;;;1.10;99.90;;;;;;4972646;28;20252;-64
2021/01/23 00:47:26;;;;;;;19.30;11.83;;;1.10;99.90;;;;;;4972574;28;20169;-63
2021/01/23 00:49:52;;;;;;;16.43;10.97;;;1.10;99.90;;;;;;4972369;28;20260;-62
2021/01/23 00:52:17;;;;;;;18.87;10.80;;;1.10;99.90;;;;;;4972367;28;20206;-63
2021/01/23 00:54:43;;;;;;;20.90;11.60;;;1.20;99.90;;;;;;4972385;28;20435;-64
2021/01/23 00:57:09;;;;;;;17.00;10.57;;;1.30;99.90;;;;;;4972451;28;20178;-63
2021/01/23 00:59:34;;;;;;;19.83;10.93;;;1.30;99.90;;;;;;4972641;28;20180;-64
2021/01/23 01:02:00;;;;;;;17.40;10.13;;;1.30;99.90;;;;;;4972394;28;20213;-63
2021/01/23 01:04:25;;;;;;;19.43;11.40;;;1.40;99.90;;;;;;4972629;28;20593;-64
2021/01/23 01:06:51;;;;;;;21.10;11.20;;;1.40;99.90;;;;;;4972065;28;20252;-64
2021/01/23 01:09:17;;;;;;;19.63;11.57;;;1.50;99.90;;;;;;4972487;28;20640;-64
2021/01/23 01:11:42;;;;;;;18.00;10.90;;;1.50;99.90;;;;;;4972143;28;20213;-64
2021/01/23 01:14:08;;;;;;;19.83;10.73;;;1.50;99.90;;;;;;4972190;28;20684;-65
2021/01/23 01:16:34;;;;;;;15.67;10.73;;;1.60;99.90;;;;;;4972564;28;20174;-65
2021/01/23 01:18:59;;;;;;;18.57;11.00;;;1.60;99.90;;;;;;4971900;28;20178;-65
2021/01/23 01:21:25;;;;;;;13.83;10.30;;;1.60;99.90;;;;;;4972455;28;20170;-65
2021/01/23 01:23:50;;;;;;;17.87;11.23;;;1.60;99.90;;;;;;4972140;28;20655;-64
2021/01/23 01:26:16;;;;;;;16.13;10.93;;;1.70;99.90;;;;;;4972450;28;20208;-65
2021/01/23 01:28:42;;;;;;;15.67;10.80;;;1.70;99.90;;;;;;4971808;28;20174;-63
2021/01/23 01:31:07;;;;;;;15.33;10.13;;;1.70;99.90;;;;;;4972385;28;20208;-65
2021/01/23 01:33:33;;;;;;;17.83;10.83;;;1.80;99.90;;;;;;4972123;28;20674;-63
2021/01/23 01:35:58;;;;;;;21.77;10.60;;;1.80;99.90;;;;;;4972227;28;20173;-65
2021/01/23 01:38:24;;;;;;;21.53;13.00;;;1.80;99.90;;;;;;4971895;28;20616;-65
2021/01/23 01:40:51;;;;;;;15.73;10.23;;;1.80;99.90;;;;;;4972257;28;20174;-64
2021/01/23 01:43:17;;;;;;;19.27;11.03;;;1.80;99.90;;;;;;4974480;28;20209;-65
2021/01/23 01:45:43;;;;;;;19.83;11.77;;;1.80;99.90;;;;;;4975938;28;20173;-64
2021/01/23 01:48:11;;;;;;;19.97;10.83;;;1.80;99.90;;;;;;4975313;28;20600;-65
2021/01/23 01:50:37;;;;;;;18.23;10.07;;;1.80;99.90;;;;;;4975849;28;20598;-63
2021/01/23 01:53:02;;;;;;;18.40;10.67;;;1.80;99.90;;;;;;4975413;28;20217;-64
2021/01/23 01:55:34;;;;;;;19.20;10.97;;;1.80;99.90;;;;;;4975796;28;20180;-63
2021/01/23 01:58:01;;;;;;;16.13;10.80;;;1.70;99.90;;;;;;4975271;28;20655;-64
2021/01/23 02:00:26;;;;;;;12.70;10.00;;;1.70;99.90;;;;;;4975809;28;20170;-64
2021/01/23 02:03:14;;;;;;;13.77;9.73;;;1.70;99.90;;;;;;4975209;28;20228;-63
2021/01/23 02:05:55;;;;;;;19.33;10.63;;;1.70;99.90;;;;;;4975562;28;20184;-65
2021/01/23 02:08:37;;;;;;;16.10;10.23;;;1.60;99.90;;;;;;4974993;28;20185;-64
2021/01/23 02:11:40;;;;;;;16.63;10.40;;;1.60;99.90;;;;;;4975173;28;20211;-65
2021/01/23 02:14:05;;;;;;;13.30;9.73;;;1.50;99.90;;;;;;4975368;28;20177;-64
2021/01/23 02:16:36;;;;;;;13.17;9.67;;;1.50;99.90;;;;;;4975215;28;20766;-65
2021/01/23 02:19:20;;;;;;;14.03;10.00;;;1.50;99.90;;;;;;4975154;28;20576;-64
2021/01/23 02:22:16;;;;;;;15.57;9.23;;;1.40;99.90;;;;;;4974640;28;20208;-65
2021/01/23 02:24:45;;;;;;;13.97;9.40;;;1.40;99.90;;;;;;4975192;28;20173;-63
2021/01/23 02:27:24;;;;;;;17.53;10.60;;;1.40;99.90;;;;;;4974896;28;20174;-65
2021/01/23 02:29:52;;;;;;;18.73;9.43;;;1.30;99.90;;;;;;4974995;28;20173;-64
2021/01/23 02:32:20;;;;;;;18.23;9.63;;;1.30;99.90;;;;;;4973768;28;20213;-65
2021/01/23 02:34:47;;;;;;;15.17;10.57;;;1.40;99.90;;;;;;4974943;28;20169;-65
2021/01/23 02:37:14;;;;;;;14.30;9.83;;;1.30;99.90;;;;;;4974757;28;20178;-64
2021/01/23 02:39:40;;;;;;;14.87;9.60;;;1.40;99.90;;;;;;4974730;28;20182;-65
2021/01/23 02:42:07;;;;;;;17.30;9.90;;;1.40;99.90;;;;;;4974701;28;20586;-65
2021/01/23 02:44:33;;;;;;;13.77;9.13;;;1.40;99.90;;;;;;4974681;28;20943;-65
2021/01/23 02:46:59;;;;;;;14.43;9.70;;;1.50;99.90;;;;;;4974500;28;20173;-64
2021/01/23 02:49:25;;;;;;;12.13;8.37;;;1.50;99.90;;;;;;4974623;28;20170;-65
2021/01/23 02:52:24;;;;;;;13.63;8.50;;;1.50;99.90;;;;;;4974534;28;20213;-65
2021/01/23 02:55:05;;;;;;;12.90;8.63;;;1.50;99.90;;;;;;4973794;28;20239;-65
2021/01/23 02:57:32;;;;;;;13.27;8.30;;;1.50;99.90;;;;;;4974697;28;20259;-64
2021/01/23 03:00:07;;;;;;;12.37;8.83;;;1.50;99.90;;;;;;4973172;28;20195;-64
2021/01/23 03:02:36;;;;;;;14.60;8.03;;;1.50;99.90;;;;;;4973198;28;20236;-64
2021/01/23 03:05:03;;;;;;;11.83;8.40;;;1.50;99.90;;;;;;4972374;28;20189;-64
2021/01/23 03:07:29;;;;;;;13.97;7.77;;;1.50;99.90;;;;;;4974227;28;20181;-64
2021/01/23 03:09:55;;;;;;;12.50;8.43;;;1.50;99.90;;;;;;4974159;28;20215;-65
2021/01/23 03:12:20;;;;;;;11.37;7.80;;;1.40;99.90;;;;;;4974132;28;20221;-65
2021/01/23 03:14:46;;;;;;;12.23;7.60;;;1.40;99.90;;;;;;4973945;28;20185;-65
2021/01/23 03:17:12;;;;;;;10.73;7.53;;;1.40;99.90;;;;;;4974176;28;20744;-64
2021/01/23 03:19:38;;;;;;;11.20;8.03;;;1.30;99.90;;;;;;4973958;28;20178;-64
2021/01/23 03:22:04;;;;;;;11.43;7.43;;;1.30;99.90;;;;;;4974098;28;20197;-65
2021/01/23 03:24:29;;;;;;;8.60;7.23;;;1.20;99.90;;;;;;4974072;28;20181;-65
2021/01/23 03:26:55;;;;;;;12.67;7.73;;;1.20;99.90;;;;;;4973779;28;20185;-64
2021/01/23 03:29:21;;;;;;;12.10;8.13;;;1.20;99.90;;;;;;4973862;28;20222;-65
2021/01/23 03:31:48;;;;;;;13.27;7.30;;;1.10;99.90;;;;;;4973902;28;20215;-64
2021/01/23 03:34:13;;;;;;;11.73;7.40;;;1.10;99.90;;;;;;4973583;28;20205;-65
2021/01/23 03:36:40;;;;;;;10.07;6.67;;;1.10;99.90;;;;;;4973768;28;20213;-64
2021/01/23 03:39:07;;;;;;;13.77;6.67;;;1.10;99.90;;;;;;4973905;28;20527;-63
2021/01/23 03:41:33;;;;;;;8.53;7.00;;;1.10;99.90;;;;;;4973837;28;20591;-64
2021/01/23 03:43:59;;;;;;;8.30;6.93;;;1.10;99.90;;;;;;4973389;28;20264;-65
2021/01/23 03:46:25;;;;;;;14.33;7.17;;;1.10;99.90;;;;;;4973659;28;20181;-63
2021/01/23 03:48:50;;;;;;;9.90;7.17;;;1.00;99.90;;;;;;4973198;28;20189;-63
2021/01/23 03:51:16;;;;;;;10.27;6.70;;;1.10;99.90;;;;;;4973675;28;20201;-64
2021/01/23 03:53:42;;;;;;;10.53;7.17;;;1.10;99.90;;;;;;4973164;28;20200;-65
2021/01/23 03:56:07;;;;;;;9.23;6.90;;;1.10;99.90;;;;;;4973523;28;20624;-65
2021/01/23 03:58:34;;;;;;;10.30;7.00;;;1.10;99.90;;;;;;4973052;28;20185;-63
2021/01/23 04:01:00;;;;;;;10.83;7.17;;;1.10;99.90;;;;;;4973611;28;20264;-65
2021/01/23 04:03:25;;;;;;;9.03;6.57;;;1.10;99.90;;;;;;4973380;28;20335;-65
2021/01/23 04:05:51;;;;;;;10.17;6.87;;;1.20;99.90;;;;;;4971688;28;20243;-64
2021/01/23 04:08:16;;;;;;;18.63;7.77;;;1.10;99.90;;;;;;4972789;28;20189;-63
2021/01/23 04:10:42;;;;;;;12.77;7.70;;;1.10;99.90;;;;;;4973251;28;20184;-64
2021/01/23 04:13:09;;;;;;;9.63;7.57;;;1.10;99.90;;;;;;4972902;28;20582;-65
2021/01/23 04:15:36;;;;;;;8.43;6.83;;;1.10;99.90;;;;;;4972928;28;20189;-63
2021/01/23 04:18:01;;;;;;;11.40;6.87;;;1.10;99.90;;;;;;4972851;28;20177;-64
2021/01/23 04:20:27;;;;;;;8.33;6.67;;;1.10;99.90;;;;;;4972847;28;20188;-66
2021/01/23 04:22:52;;;;;;;12.80;7.73;;;1.10;99.90;;;;;;4973094;28;20419;-64
2021/01/23 04:25:18;;;;;;;11.00;7.03;;;1.10;99.90;;;;;;4972906;28;20205;-64
2021/01/23 04:27:44;;;;;;;9.40;6.97;;;1.10;99.90;;;;;;4972620;28;20264;-63
2021/01/23 04:30:11;;;;;;;10.67;7.07;;;1.10;99.90;;;;;;4972663;28;20201;-63
2021/01/23 04:32:37;;;;;;;12.10;7.43;;;1.10;99.90;;;;;;4972891;28;20212;-64
2021/01/23 04:35:05;;;;;;;11.90;7.07;;;1.20;99.90;;;;;;4972761;28;20597;-65
2021/01/23 04:37:31;;;;;;;10.53;7.33;;;1.20;99.90;;;;;;4972813;28;20217;-64
2021/01/23 04:39:56;;;;;;;11.07;7.57;;;1.30;99.90;;;;;;4972580;28;20620;-65
2021/01/23 04:42:22;;;;;;;12.47;7.73;;;1.30;99.90;;;;;;4972854;28;20296;-64
2021/01/23 04:44:48;;;;;;;9.67;6.80;;;1.40;99.90;;;;;;4972435;28;20272;-64
2021/01/23 04:47:14;;;;;;;9.80;6.90;;;1.50;99.90;;;;;;4972567;28;20177;-64
2021/01/23 04:49:40;;;;;;;9.40;6.93;;;1.60;99.90;;;;;;4972540;28;20192;-65
2021/01/23 04:52:06;;;;;;;9.97;7.30;;;1.70;99.90;;;;;;4955100;28;20221;-63
2021/01/23 04:54:34;;;;;;;11.53;7.13;;;1.70;99.90;;;;;;4972605;28;20252;-63
2021/01/23 04:57:01;;;;;;;11.43;6.73;;;1.80;99.90;;;;;;4972692;28;20660;-65
2021/01/23 04:59:26;;;;;;;11.53;7.50;;;1.90;99.90;;;;;;4972390;28;20189;-64
2021/01/23 05:02:27;;;;;;;11.07;7.67;;;1.90;99.90;;;;;;4972383;28;20582;-64
2021/01/23 05:05:03;;;;;;;10.23;7.10;;;2.10;99.90;;;;;;4930315;29;20194;-64
2021/01/23 05:07:37;;;;;;;13.33;7.63;;;2.10;99.90;;;;;;4966750;28;20193;-65
2021/01/23 05:10:27;;;;;;;11.33;8.17;;;2.20;99.90;;;;;;4954228;28;20185;-65
2021/01/23 05:12:54;;;;;;;9.87;7.27;;;2.30;99.90;;;;;;4953093;28;20763;-63
2021/01/23 05:15:32;;;;;;;10.10;7.17;;;2.40;99.90;;;;;;4972573;28;20177;-64
2021/01/23 05:18:00;;;;;;;10.53;7.53;;;2.40;99.90;;;;;;4975273;28;20256;-64
2021/01/23 05:20:30;;;;;;;11.37;6.93;;;2.50;99.90;;;;;;4957065;29;20170;-64
2021/01/23 05:22:56;;;;;;;8.90;6.67;;;2.50;99.90;;;;;;4956910;29;20619;-65
2021/01/23 05:25:26;;;;;;;10.90;7.50;;;2.60;99.90;;;;;;4975921;28;20213;-65
2021/01/23 05:27:52;;;;;;;10.13;6.63;;;2.60;99.90;;;;;;4960497;28;20581;-64
2021/01/23 05:30:18;;;;;;;10.33;7.17;;;2.70;99.90;;;;;;4956852;29;20186;-64
2021/01/23 05:32:43;;;;;;;11.13;7.20;;;2.70;99.90;;;;;;4966015;28;20220;-64
2021/01/23 05:35:13;;;;;;;11.67;7.10;;;2.70;99.90;;;;;;4976136;28;20230;-65
2021/01/23 05:37:38;;;;;;;9.43;6.13;;;2.70;99.90;;;;;;4963399;28;20181;-65
2021/01/23 05:40:05;;;;;;;8.50;5.80;;;2.70;99.90;;;;;;4956880;29;20184;-65
2021/01/23 05:42:32;;;;;;;12.17;7.67;;;2.70;99.90;;;;;;4967645;28;20280;-64
2021/01/23 05:45:23;;;;;;;12.37;7.60;;;2.60;99.90;;;;;;4975902;28;20215;-63
2021/01/23 05:47:49;;;;;;;12.80;6.60;;;2.60;99.90;;;;;;4959959;28;20198;-64
2021/01/23 05:50:15;;;;;;;9.63;6.83;;;2.50;99.90;;;;;;4956562;29;20245;-64
2021/01/23 05:52:40;;;;;;;12.60;7.73;;;2.50;99.90;;;;;;4967001;28;20329;-65
2021/01/23 05:55:06;;;;;;;11.87;7.37;;;2.50;99.90;;;;;;4969213;28;20181;-64
2021/01/23 05:57:33;;;;;;;9.17;6.43;;;2.40;99.90;;;;;;4956108;29;20182;-63
2021/01/23 06:00:00;;;;;;;11.20;6.73;;;2.40;99.90;;;;;;4960897;28;20721;-64
2021/01/23 06:02:26;;;;;;;10.27;7.43;;;2.40;99.90;;;;;;4975612;28;20651;-64
2021/01/23 06:04:52;;;;;;;7.70;6.37;;;2.40;99.90;;;;;;4972114;28;20182;-64
2021/01/23 06:07:40;;;;;;;10.47;7.37;;;2.40;99.90;;;;;;4956036;29;20186;-64
2021/01/23 06:10:26;;;;;;;11.17;6.77;;;2.40;99.90;;;;;;4960573;28;20210;-65
2021/01/23 06:12:55;;;;;;;11.33;6.83;;;2.40;99.90;;;;;;4975050;28;20216;-64
2021/01/23 06:15:34;;;;;;;11.20;7.37;;;2.40;99.90;;;;;;4969198;28;20218;-64
2021/01/23 06:18:28;;;;;;;10.20;7.20;;;2.50;99.90;;;;;;4955679;29;20257;-65
2021/01/23 06:21:00;;;;;;;11.03;7.37;;;2.50;99.90;;;;;;4957059;28;20178;-65
2021/01/23 06:23:51;;;;;;;9.83;6.30;;;2.50;99.90;;;;;;4960885;28;20683;-64
2021/01/23 06:26:17;;;;;;;13.23;7.00;;;2.50;99.90;;;;;;4975150;28;20201;-63
2021/01/23 06:28:43;;;;;;;11.57;7.27;;;2.50;99.90;;;;;;4965794;28;20185;-65
2021/01/23 06:31:31;;;;;;;9.47;6.43;;;2.50;99.90;;;;;;4955749;29;20178;-64
2021/01/23 06:33:57;;;;;;;11.10;7.20;;;2.50;99.90;;;;;;4964718;28;20177;-65
2021/01/23 06:36:23;;;;;;;13.33;8.13;;;2.60;99.90;;;;;;4974982;28;20300;-64
2021/01/23 06:39:11;;;;;;;9.13;7.40;;;2.60;99.90;;;;;;4959798;28;20282;-65
2021/01/23 06:41:38;;;;;;;11.20;8.40;;;2.60;99.90;;;;;;4971568;28;20181;-64
2021/01/23 06:44:06;;;;;;;13.20;7.87;;;2.60;99.90;;;;;;4974939;28;20178;-65
2021/01/23 06:46:33;;;;;;;10.37;7.07;;;2.60;99.90;;;;;;4958752;28;20190;-62
2021/01/23 06:49:03;;;;;;;13.47;7.83;;;2.60;99.90;;;;;;4974424;28;20181;-65
2021/01/23 06:51:29;;;;;;;13.63;8.07;;;2.60;99.90;;;;;;4973902;28;20296;-65
2021/01/23 06:54:14;;;;;;;12.73;7.13;;;2.60;99.90;;;;;;4974421;28;20676;-65
2021/01/23 06:56:51;;;;;;;10.73;7.03;;;2.60;99.90;;;;;;4965544;28;20185;-65
2021/01/23 06:59:28;;;;;;;10.57;7.40;;;2.60;99.90;;;;;;4974736;28;20256;-65
2021/01/23 07:02:08;;;;;;;11.67;7.70;;;2.60;99.90;;;;;;4957635;28;20550;-65
2021/01/23 07:04:36;;;;;;;11.37;7.37;;;2.70;99.90;;;;;;4955029;29;20177;-64
2021/01/23 07:07:11;;;;;;;9.97;7.27;;;2.70;99.90;;;;;;4971351;28;20181;-64
2021/01/23 07:09:52;;;;;;;15.50;8.23;;;2.70;99.90;;;;;;4974558;28;20172;-64
2021/01/23 07:12:36;;;;;;;11.20;6.80;;;2.70;99.90;;;;;;4955355;28;20244;-65
2021/01/23 07:15:03;;;;;;;9.10;7.70;;;2.80;99.90;;;;;;4955085;28;20182;-65
2021/01/23 07:17:34;;;;;;;11.93;6.73;;;2.80;99.90;;;;;;4974353;28;20232;-65
2021/01/23 07:20:05;;;;;;;10.27;7.50;;;2.90;99.90;;;;;;4958443;28;20188;-65
2021/01/23 07:22:31;;;;;;;12.00;8.27;;;2.90;99.90;;;;;;4954834;29;20277;-64
2021/01/23 07:24:57;;;;;;;9.20;6.47;;;2.90;99.90;;;;;;4968991;28;20280;-63
2021/01/23 07:27:25;;;;;;;13.27;7.43;;;3.00;99.90;;;;;;4973657;28;20654;-64
2021/01/23 07:29:51;;;;;;;13.00;7.63;;;3.00;99.90;;;;;;4960477;28;20188;-64
2021/01/23 07:32:17;;;;;;;14.60;9.20;;;3.00;99.90;;;;;;4954336;29;20214;-65
2021/01/23 07:34:59;;;;;;;16.50;9.23;;;3.00;99.90;;;;;;4965827;28;20590;-64
2021/01/23 07:38:12;;;;;;;11.60;7.60;;;3.00;99.90;;;;;;4973579;28;20187;-64
2021/01/23 07:40:39;;;;;;;10.87;7.07;;;3.00;99.90;;;;;;4957725;28;20627;-65
2021/01/23 07:43:06;;;;;;;11.80;7.83;;;3.00;99.90;;;;;;4973594;28;20296;-64
2021/01/23 07:45:33;;;;;;;14.47;8.53;;;2.90;99.90;;;;;;4974077;28;20647;-65
2021/01/23 07:48:05;;;;;;;13.10;7.60;;;2.90;99.90;;;;;;4973286;28;20602;-63
2021/01/23 07:50:39;;;;;;;10.33;6.60;;;2.90;99.90;;;;;;4973726;28;20177;-64
2021/01/23 07:53:22;;;;;;;15.93;8.23;;;2.90;99.90;;;;;;4973255;28;20259;-64
2021/01/23 07:55:48;;;;;;;10.43;7.97;;;2.90;99.90;;;;;;4973866;28;20170;-64
2021/01/23 07:58:15;;;;;;;13.27;8.20;;;2.90;99.90;;;;;;4973096;28;20260;-64
2021/01/23 08:00:42;;;;;;;11.03;7.40;;;3.00;99.90;;;;;;4973541;28;20173;-65
2021/01/23 08:03:08;;;;;;;10.00;7.00;;;3.00;99.90;;;;;;4972674;28;20209;-64
2021/01/23 08:05:57;;;;;;;13.20;7.07;;;3.00;99.90;;;;;;4973220;28;20186;-64
2021/01/23 08:08:32;;;;;;;11.93;8.50;;;3.10;99.90;;;;;;4972911;28;20645;-65
2021/01/23 08:10:58;;;;;;;11.77;8.63;;;3.10;99.90;;;;;;4973278;28;20185;-65
2021/01/23 08:13:29;;;;;;;11.13;8.43;;;3.10;99.90;;;;;;4973271;28;20225;-64
2021/01/23 08:16:11;;;;;;;12.17;7.70;;;3.10;99.90;;;;;;4973212;28;20777;-65
2021/01/23 08:18:37;;;;;;;12.03;7.67;;;3.10;99.90;;;;;;4972651;28;20588;-64
2021/01/23 08:21:23;;;;;;;15.00;8.50;;;3.10;99.90;;;;;;4973045;28;20173;-65
2021/01/23 08:23:49;;;;;;;12.77;8.03;;;3.20;99.90;;;;;;4972253;28;20206;-65
2021/01/23 08:26:15;;;;;;;17.20;8.50;;;3.20;99.90;;;;;;4955680;28;20205;-64
2021/01/23 08:28:43;;;;;;;10.73;7.90;;;3.30;99.90;;;;;;4972355;28;20247;-64
2021/01/23 08:31:18;;;;;;;12.13;7.83;;;3.30;99.90;;;;;;4972886;28;20182;-65
2021/01/23 08:33:48;;;;;;;10.57;7.20;;;3.30;99.90;;;;;;4972449;28;20187;-64
2021/01/23 08:36:14;;;;;;;10.50;7.63;;;3.30;99.90;;;;;;4972682;28;20227;-65
2021/01/23 08:38:40;;;;;;;11.57;8.17;;;3.30;99.90;;;;;;4972126;28;20178;-64
2021/01/23 08:41:06;;;;;;;11.93;7.43;;;3.40;99.90;;;;;;4972359;28;20201;-65
2021/01/23 08:43:32;;;;;;;11.40;7.27;;;3.50;99.90;;;;;;4972512;28;20251;-65
2021/01/23 08:45:58;;;;;;;10.50;6.93;;;3.60;99.90;;;;;;4972798;28;20182;-65
2021/01/23 08:48:23;;;;;;;11.10;7.50;;;3.60;99.90;;;;;;4972317;28;20225;-65
2021/01/23 08:50:49;;;;;;;11.13;6.20;;;3.60;99.90;;;;;;4972235;28;20182;-65
2021/01/23 08:53:15;;;;;;;10.77;6.77;;;3.60;99.90;;;;;;4972787;28;20205;-64
2021/01/23 08:55:41;;;;;;;14.63;7.30;;;3.70;99.90;;;;;;4972419;28;20181;-63
2021/01/23 08:58:06;;;;;;;13.67;7.33;;;3.70;99.90;;;;;;4972065;28;20177;-64
2021/01/23 09:00:32;;;;;;;9.73;6.83;;;3.70;99.90;;;;;;4970991;28;20628;-64
2021/01/23 09:03:00;;;;;;;10.07;7.40;;;3.80;99.90;;;;;;4972317;28;20204;-64
2021/01/23 09:05:26;;;;;;;13.57;6.90;;;4.00;99.90;;;;;;4972161;28;20178;-64
2021/01/23 09:07:51;;;;;;;8.33;6.57;;;4.20;99.90;;;;;;4972044;28;20188;-64
2021/01/23 09:10:19;;;;;;;12.53;6.63;;;4.30;99.90;;;;;;4972530;28;20273;-64
2021/01/23 09:12:44;;;;;;;9.97;7.13;;;4.50;99.90;;;;;;4973987;28;20263;-65
2021/01/23 09:15:10;;;;;;;11.17;6.73;;;4.70;99.90;;;;;;4990652;28;20208;-65
2021/01/23 09:17:38;;;;;;;13.03;8.20;;;5.00;99.90;;;;;;4974358;28;20540;-65
2021/01/23 09:20:06;;;;;;;8.83;6.87;;;5.20;99.90;;;;;;4972436;28;20185;-64
2021/01/23 09:22:32;;;;;;;8.70;5.87;;;5.40;99.90;;;;;;4971755;28;20284;-65
2021/01/23 09:24:59;;;;;;;10.47;6.30;;;5.60;99.90;;;;;;4972209;28;20269;-64
2021/01/23 09:27:25;;;;;;;7.17;5.73;;;5.90;99.90;;;;;;4971595;28;20264;-64
2021/01/23 09:29:50;;;;;;;7.43;5.63;;;6.30;99.90;;;;;;4970752;28;20279;-65
2021/01/23 09:32:17;;;;;;;8.10;5.80;;;6.70;99.90;;;;;;4972070;28;20212;-65
2021/01/23 09:34:43;;;;;;;6.90;5.97;;;7.00;99.90;;;;;;4971821;28;20571;-65
2021/01/23 09:37:09;;;;;;;9.43;5.70;;;7.30;99.90;;;;;;4971898;28;20260;-63
2021/01/23 09:39:34;;;;;;;8.23;5.53;;;7.60;99.90;;;;;;4972125;28;20216;-65
2021/01/23 09:42:00;;;;;;;9.10;5.80;;;7.80;99.90;;;;;;4971826;28;20668;-63
2021/01/23 09:44:26;;;;;;;6.40;5.33;;;8.00;99.90;;;;;;4971934;28;20189;-64
2021/01/23 09:46:53;;;;;;;7.10;5.73;;;8.20;99.90;;;;;;4971830;28;20184;-63
2021/01/23 09:49:18;;;;;;;8.67;6.57;;;8.30;99.90;;;;;;4971848;28;20595;-64
2021/01/23 09:51:44;;;;;;;8.63;5.80;;;8.30;99.90;;;;;;4971710;28;20240;-64
2021/01/23 09:54:09;;;;;;;10.17;6.27;;;8.30;99.90;;;;;;4971920;28;20299;-66
2021/01/23 09:56:35;;;;;;;9.97;7.20;;;8.50;99.90;;;;;;4971907;28;20177;-65
2021/01/23 09:59:01;;;;;;;7.87;5.90;;;8.50;99.90;;;;;;4971260;28;20261;-64
2021/01/23 10:01:26;;;;;;;10.20;6.50;;;8.50;99.90;;;;;;4972044;28;20224;-65
2021/01/23 10:03:52;;;;;;;6.80;5.73;;;8.40;99.90;;;;;;4973227;28;20329;-65
2021/01/23 10:06:17;;;;;;;9.17;6.07;;;8.50;99.90;;;;;;4975516;28;20624;-65
2021/01/23 10:08:43;;;;;;;8.03;5.87;;;8.40;99.90;;;;;;4974721;28;20185;-65
2021/01/23 10:11:08;;;;;;;8.23;6.20;;;8.50;99.90;;;;;;4975552;28;20268;-64
2021/01/23 10:13:34;;;;;;;7.60;5.60;;;8.60;99.90;;;;;;4975192;28;20237;-65
2021/01/23 10:16:00;;;;;;;11.97;9.10;;;8.60;99.90;;;;;;4975143;28;20177;-66
2021/01/23 10:18:26;;;;;;;8.83;6.27;;;8.60;99.90;;;;;;4974726;28;20200;-66
2021/01/23 10:20:51;;;;;;;10.97;6.53;;;8.50;99.90;;;;;;4974164;28;20177;-65
2021/01/23 10:23:17;;;;;;;8.60;6.63;;;8.60;99.90;;;;;;4974260;28;20209;-65
2021/01/23 10:25:42;;;;;;;10.70;6.27;;;8.70;99.90;;;;;;4970496;28;20201;-66
2021/01/23 10:28:08;;;;;;;7.47;5.07;;;9.00;99.90;;;;;;4955822;29;20209;-66
2021/01/23 10:30:34;;;;;;;7.30;5.50;;;9.40;99.90;;;;;;4959548;28;20543;-66
2021/01/23 10:32:59;;;;;;;9.30;5.80;;;9.70;99.90;;;;;;4974802;28;20213;-65
2021/01/23 10:35:25;;;;;;;7.23;5.00;;;10.10;99.90;;;;;;4974695;28;20228;-65
2021/01/23 10:37:50;;;;;;;6.80;5.17;;;10.40;99.90;;;;;;4974463;28;20265;-66
2021/01/23 10:40:17;;;;;;;8.50;5.47;;;11.00;99.90;;;;;;4974727;28;20654;-65
2021/01/23 10:42:43;;;;;;;9.57;7.07;;;11.40;99.90;;;;;;4974544;28;20221;-65
2021/01/23 10:45:09;;;;;;;7.13;5.00;;;11.70;99.90;;;;;;4975053;28;20632;-66
2021/01/23 10:47:38;;;;;;;5.20;4.30;;;12.00;99.90;;;;;;4975946;28;20213;-66
2021/01/23 10:50:06;;;;;;;6.10;4.53;;;12.50;99.90;;;;;;4975024;28;20181;-65
2021/01/23 10:52:32;;;;;;;4.80;4.23;;;12.60;99.90;;;;;;4975509;28;20284;-66
2021/01/23 10:54:57;;;;;;;7.30;4.20;;;12.70;99.90;;;;;;4975327;28;20209;-64
2021/01/23 10:57:23;;;;;;;6.77;4.00;;;12.70;99.90;;;;;;4975324;28;20173;-66
2021/01/23 10:59:49;;;;;;;6.83;4.10;;;12.80;99.90;;;;;;4975061;28;20194;-66
2021/01/23 11:02:14;;;;;;;4.37;3.77;;;12.70;99.90;;;;;;4975648;28;20201;-66
2021/01/23 11:04:40;;;;;;;8.43;4.47;;;12.80;99.90;;;;;;4974723;28;20693;-64
2021/01/23 11:07:06;;;;;;;6.23;3.43;;;12.80;99.90;;;;;;4974118;28;20185;-63
2021/01/23 11:09:31;;;;;;;4.20;3.33;;;13.00;99.90;;;;;;4974096;28;20186;-64
2021/01/23 11:11:57;;;;;;;4.73;4.13;;;13.10;99.90;;;;;;4974082;28;20242;-64
2021/01/23 11:14:22;;;;;;;4.07;3.33;;;13.30;99.90;;;;;;4973778;28;20182;-62
2021/01/23 11:16:49;;;;;;;8.70;3.93;;;13.70;99.90;;;;;;4973834;28;20601;-64
2021/01/23 11:19:16;;;;;;;4.90;3.27;;;14.00;99.90;;;;;;4973921;28;20205;-62
2021/01/23 11:21:42;;;;;;;5.03;3.87;;;14.10;99.90;;;;;;4974042;28;20695;-63
2021/01/23 11:24:08;;;;;;;4.77;3.33;;;14.30;99.90;;;;;;4973903;28;20313;-63
2021/01/23 11:26:34;;;;;;;3.93;2.93;;;14.30;99.90;;;;;;4973899;28;20177;-62
2021/01/23 11:29:00;;;;;;;5.70;2.83;;;14.00;99.90;;;;;;4973458;28;20206;-62
2021/01/23 11:31:25;;;;;;;4.47;3.00;;;13.60;99.90;;;;;;4973768;28;20277;-63
2021/01/23 11:33:51;;;;;;;4.20;2.80;;;13.20;99.90;;;;;;4973496;28;20273;-62
2021/01/23 11:36:18;;;;;;;4.60;2.97;;;12.80;99.90;;;;;;4973806;28;20181;-63
2021/01/23 11:38:44;;;;;;;3.50;2.77;;;12.30;99.90;;;;;;4973129;28;20272;-63
2021/01/23 11:41:11;;;;;;;4.30;2.40;;;11.90;99.90;;;;;;4973910;28;20261;-63
2021/01/23 11:43:37;;;;;;;3.27;2.63;;;11.50;99.90;;;;;;5053013;23;20248;-64
2021/01/23 11:46:03;;;;;;;3.27;2.30;;;11.00;99.90;;;;;;4973770;28;20169;-64
2021/01/23 11:48:30;;;;;;;4.83;2.60;;;10.50;99.90;;;;;;4955791;28;20567;-64
2021/01/23 11:50:56;;;;;;;3.77;2.83;;;10.10;99.90;;;;;;4972897;28;20180;-63
2021/01/23 11:53:22;;;;;;;4.33;2.83;;;9.90;99.90;;;;;;4973577;28;20233;-64
2021/01/23 11:55:49;;;;;;;3.77;2.70;;;10.00;99.90;;;;;;4973534;28;20182;-64
2021/01/23 11:58:15;;;;;;;3.10;2.80;;;10.00;99.90;;;;;;4973247;28;20185;-63
2021/01/23 12:00:40;;;;;;;4.63;2.77;;;9.80;99.90;;;;;;4973188;28;20173;-63
2021/01/23 12:03:06;;;;;;;4.57;2.60;;;9.90;99.90;;;;;;4973436;28;20196;-63
2021/01/23 12:05:33;;;;;;;3.77;2.53;;;10.10;99.90;;;;;;4972156;28;20200;-64
2021/01/23 12:07:59;;;;;;;3.70;2.40;;;10.30;99.90;;;;;;4972464;28;20247;-62
2021/01/23 12:10:24;;;;;;;2.00;1.90;;;10.60;99.90;;;;;;4973273;28;20178;-62
2021/01/23 12:12:50;;;;;;;1.80;1.70;;;10.70;99.90;;;;;;4972905;28;20228;-64
2021/01/23 12:15:16;;;;;;;1.90;1.80;;;10.70;99.90;;;;;;4973373;28;20169;-64
2021/01/23 12:17:42;;;;;;;3.63;2.03;;;10.90;99.90;;;;;;4972584;28;20177;-64
2021/01/23 12:20:10;;;;;;;2.40;1.60;;;11.10;99.90;;;;;;4972964;28;20260;-64
2021/01/23 12:22:39;;;;;;;3.57;1.73;;;11.10;99.90;;;;;;4973098;28;20861;-64
2021/01/23 12:25:07;;;;;;;1.70;1.60;;;11.00;99.90;;;;;;4972606;28;20276;-65
2021/01/23 12:27:32;;;;;;;3.13;2.13;;;10.70;99.90;;;;;;4972141;28;20177;-65
2021/01/23 12:29:58;;;;;;;2.63;2.10;;;10.40;99.90;;;;;;4972694;28;20197;-63
2021/01/23 12:32:24;;;;;;;2.57;1.80;;;10.00;99.90;;;;;;4972903;28;20214;-61
2021/01/23 12:34:49;;;;;;;4.27;2.70;;;9.70;99.90;;;;;;4972268;28;20655;-64
2021/01/23 12:37:15;;;;;;;3.37;2.63;;;9.50;99.90;;;;;;4972637;28;20173;-63
2021/01/23 12:39:40;;;;;;;6.97;2.50;;;9.30;99.90;;;;;;4972608;28;20183;-64
2021/01/23 12:42:07;;;;;;;2.53;2.17;;;9.10;99.90;;;;;;4972607;28;20209;-63
2021/01/23 12:44:32;;;;;;;2.53;1.97;;;9.10;99.90;;;;;;4972492;28;20268;-64
2021/01/23 12:46:58;;;;;;;2.20;2.00;;;9.10;99.90;;;;;;4971644;28;20272;-63
2021/01/23 12:49:24;;;;;;;2.43;1.93;;;9.20;99.90;;;;;;4972857;28;20597;-63
2021/01/23 12:51:50;;;;;;;2.17;1.57;;;9.30;99.90;;;;;;4972439;28;20193;-64
2021/01/23 12:54:15;;;;;;;3.03;1.50;;;9.70;99.90;;;;;;4972940;28;20173;-64